createdAt,value
2023-05-04T00:00:23.056Z,51.45
2023-05-04T00:05:22.339Z,50.93
2023-05-04T00:10:22.632Z,49.72
2023-05-04T00:15:21.913Z,49.29
2023-05-04T00:20:21.181Z,50.35
2023-05-04T00:25:20.449Z,50.98
2023-05-04T00:30:19.731Z,50.78
2023-05-04T00:35:17.992Z,50.37
2023-05-04T00:40:17.275Z,50.67
2023-05-04T00:45:16.557Z,50.07
2023-05-04T00:50:15.874Z,51.10
2023-05-04T00:55:17.209Z,50.70
2023-05-04T01:00:16.432Z,51.40
2023-05-04T01:05:13.692Z,51.00
2023-05-04T01:10:13.984Z,51.83
2023-05-04T01:15:12.132Z,51.20
2023-05-04T01:20:11.409Z,51.73
2023-05-04T01:25:11.670Z,50.49
2023-05-04T01:30:09.911Z,51.03
2023-05-04T01:35:11.133Z,50.82
2023-05-04T01:40:07.458Z,51.12
2023-05-04T01:45:09.732Z,51.86
2023-05-04T01:50:08.020Z,52.16
2023-05-04T01:55:07.292Z,52.36
2023-05-04T02:00:05.807Z,51.86
2023-05-04T02:05:04.756Z,51.76
2023-05-04T02:10:04.319Z,51.45
2023-05-04T02:15:04.369Z,50.09
2023-05-04T02:20:03.806Z,50.62
2023-05-04T02:25:06.038Z,51.25
2023-05-04T02:30:02.350Z,51.68
2023-05-04T02:35:00.368Z,51.57
2023-05-04T02:40:00.648Z,51.05
2023-05-04T02:44:59.954Z,50.87
2023-05-04T02:49:59.259Z,51.78
2023-05-04T02:54:58.575Z,50.97
2023-05-04T02:59:56.876Z,50.77
2023-05-04T03:04:56.195Z,51.17
2023-05-04T03:09:56.456Z,51.09
2023-05-04T03:14:54.723Z,51.50
2023-05-04T03:19:54.991Z,50.59
2023-05-04T03:24:54.286Z,50.06
2023-05-04T03:29:53.584Z,50.26
2023-05-04T03:34:51.813Z,51.22
2023-05-04T03:39:52.115Z,51.09
2023-05-04T03:44:49.381Z,51.53
2023-05-04T03:49:49.635Z,52.15
2023-05-04T03:54:48.889Z,51.53
2023-05-04T03:59:48.155Z,51.53
2023-05-04T04:04:47.521Z,50.29
2023-05-04T04:09:47.664Z,50.41
2023-05-04T04:14:45.941Z,51.14
2023-05-04T04:19:45.212Z,51.25
2023-05-04T04:24:44.482Z,50.49
2023-05-04T04:29:45.771Z,50.01
2023-05-04T04:34:43.047Z,49.55
2023-05-04T04:39:43.410Z,48.74
2023-05-04T04:44:41.491Z,50.71
2023-05-04T04:49:40.770Z,51.14
2023-05-04T04:54:40.056Z,50.18
2023-05-04T04:59:40.379Z,50.92
2023-05-04T05:04:38.652Z,52.36
2023-05-04T05:09:37.958Z,52.33
2023-05-04T05:14:37.207Z,52.23
2023-05-04T05:19:36.484Z,52.13
2023-05-04T05:24:36.811Z,52.54
2023-05-04T05:29:37.287Z,50.95
2023-05-04T05:34:35.309Z,50.82
2023-05-04T05:39:34.588Z,52.28
2023-05-04T05:44:34.836Z,51.96
2023-05-04T05:49:33.119Z,51.12
2023-05-04T05:54:32.363Z,52.69
2023-05-04T05:59:30.647Z,52.16
2023-05-04T06:04:30.974Z,51.53
2023-05-04T06:09:29.075Z,51.43
2023-05-04T06:14:29.342Z,52.34
2023-05-04T06:19:29.049Z,51.40
2023-05-04T06:24:26.745Z,52.51
2023-05-04T06:29:28.026Z,51.48
2023-05-04T06:34:26.292Z,49.54
2023-05-04T06:39:25.592Z,48.41
2023-05-04T06:44:23.820Z,48.00
2023-05-04T06:49:23.112Z,47.58
2023-05-04T06:54:22.388Z,47.38
2023-05-04T06:59:23.649Z,47.05
2023-05-04T07:04:20.905Z,47.05
2023-05-04T07:09:20.268Z,46.55
2023-05-04T07:14:19.517Z,45.82
2023-05-04T07:19:18.805Z,45.92
2023-05-04T07:24:18.065Z,46.80
2023-05-04T07:29:17.320Z,46.50
2023-05-04T07:34:16.586Z,46.70
2023-05-04T07:39:15.953Z,46.80
2023-05-04T07:44:15.010Z,46.18
2023-05-04T07:49:14.280Z,47.61
2023-05-04T07:54:13.565Z,46.08
2023-05-04T07:59:13.811Z,46.38
2023-05-04T08:04:13.076Z,46.56
2023-05-04T08:09:12.345Z,47.06
2023-05-04T08:14:12.739Z,47.36
2023-05-04T08:19:10.045Z,46.96
2023-05-04T08:24:10.449Z,47.06
2023-05-04T08:29:08.352Z,47.46
2023-05-04T08:34:08.666Z,47.77
2023-05-04T08:39:06.915Z,48.27
2023-05-04T08:44:06.226Z,48.77
2023-05-04T08:49:05.529Z,48.57
2023-05-04T08:54:09.909Z,47.74
2023-05-04T08:59:03.983Z,47.74
2023-05-04T09:04:05.316Z,47.54
2023-05-04T09:09:03.555Z,47.14
2023-05-04T09:14:01.879Z,47.02
2023-05-04T09:19:02.194Z,47.22
2023-05-04T09:24:00.493Z,46.29
2023-05-04T09:28:59.817Z,46.19
2023-05-04T09:33:59.072Z,46.09
2023-05-04T09:38:59.375Z,46.29
2023-05-04T09:43:58.635Z,46.37
2023-05-04T09:48:57.897Z,47.27
2023-05-04T09:53:56.161Z,47.17
2023-05-04T09:58:55.419Z,47.38
2023-05-04T10:03:53.695Z,46.35
2023-05-04T10:08:53.951Z,46.35
2023-05-04T10:13:53.198Z,45.45
2023-05-04T10:18:52.480Z,46.35
2023-05-04T10:23:53.745Z,46.35
2023-05-04T10:28:51.033Z,46.65
2023-05-04T10:33:50.279Z,45.72
2023-05-04T10:38:50.560Z,45.92
2023-05-04T10:43:47.859Z,45.83
2023-05-04T10:48:50.136Z,45.72
2023-05-04T10:53:47.392Z,46.41
2023-05-04T10:58:46.653Z,46.00
2023-05-04T11:03:47.001Z,46.50
2023-05-04T11:08:45.133Z,46.20
2023-05-04T11:13:44.410Z,46.30
2023-05-04T11:18:43.693Z,46.11
2023-05-04T11:23:42.967Z,45.38
2023-05-04T11:28:42.247Z,46.08
2023-05-04T11:33:41.513Z,45.88
2023-05-04T11:38:42.806Z,45.88
2023-05-04T11:43:40.069Z,45.38
2023-05-04T11:48:39.373Z,45.88
2023-05-04T11:53:40.497Z,45.28
2023-05-04T11:58:37.798Z,44.78
2023-05-04T12:03:52.158Z,44.68
2023-05-04T12:08:37.222Z,44.66
2023-05-04T12:13:35.516Z,44.26
2023-05-04T12:18:34.813Z,44.66
2023-05-04T12:23:35.104Z,44.56
2023-05-04T12:28:33.391Z,44.76
2023-05-04T12:33:35.669Z,44.86
2023-05-04T12:38:32.964Z,45.36
2023-05-04T12:43:32.253Z,45.16
2023-05-04T12:48:31.557Z,44.96
2023-05-04T12:53:28.821Z,44.93
2023-05-04T12:58:30.132Z,44.24
2023-05-04T13:03:28.544Z,43.24
2023-05-04T13:08:27.725Z,43.63
2023-05-04T13:13:28.025Z,43.43
2023-05-04T13:18:27.712Z,43.63
2023-05-04T13:23:26.592Z,43.63
2023-05-04T13:28:24.849Z,43.43
2023-05-04T13:33:30.005Z,43.24
2023-05-04T13:38:25.351Z,42.83
2023-05-04T13:43:22.648Z,42.33
2023-05-04T13:48:23.966Z,42.52
2023-05-04T13:53:21.149Z,42.52
2023-05-04T13:58:20.461Z,42.21
2023-05-04T14:03:19.762Z,41.71
2023-05-04T14:08:20.061Z,41.71
2023-05-04T14:13:18.368Z,41.31
2023-05-04T14:18:17.519Z,41.21
2023-05-04T14:23:16.782Z,41.11
2023-05-04T14:28:16.064Z,41.31
2023-05-04T14:33:16.452Z,41.52
2023-05-04T14:38:16.514Z,41.61
2023-05-04T14:43:13.786Z,41.71
2023-05-04T14:48:14.098Z,41.71
2023-05-04T14:53:13.302Z,41.69
2023-05-04T14:58:13.563Z,41.89
2023-05-04T15:03:10.936Z,41.89
2023-05-04T15:08:11.087Z,41.99
2023-05-04T15:13:09.495Z,42.10
2023-05-04T15:18:08.700Z,42.19
2023-05-04T15:23:08.957Z,42.19
2023-05-04T15:28:07.188Z,42.19
2023-05-04T15:33:07.511Z,42.40
2023-05-04T15:38:07.784Z,42.29
2023-05-04T15:43:05.048Z,42.38
2023-05-04T15:48:04.348Z,42.38
2023-05-04T15:53:03.583Z,42.47
2023-05-04T15:58:02.880Z,42.38
2023-05-04T16:03:02.135Z,42.57
2023-05-04T16:08:04.337Z,42.47
2023-05-04T16:13:01.634Z,42.47
2023-05-04T16:17:59.924Z,42.35
2023-05-04T16:22:59.205Z,42.25
2023-05-04T16:27:59.526Z,42.25
2023-05-04T16:32:58.862Z,42.15
2023-05-04T16:37:57.926Z,42.05
2023-05-04T16:42:58.203Z,42.05
2023-05-04T16:47:55.559Z,41.96
2023-05-04T16:52:56.849Z,41.83
2023-05-04T16:57:55.133Z,41.74
2023-05-04T17:02:54.459Z,41.63
2023-05-04T17:07:52.717Z,41.63
2023-05-04T17:12:51.965Z,41.63
2023-05-04T17:17:51.266Z,41.53
2023-05-04T17:22:50.534Z,41.44
2023-05-04T17:27:49.778Z,41.44
2023-05-04T17:32:49.048Z,41.33
2023-05-04T17:37:48.295Z,41.33
2023-05-04T17:42:47.527Z,41.33
2023-05-04T17:47:47.830Z,41.44
2023-05-04T17:52:47.123Z,42.51
2023-05-04T17:57:45.392Z,42.32
2023-05-04T18:02:44.751Z,42.21
2023-05-04T18:07:43.829Z,42.32
2023-05-04T18:12:45.745Z,42.32
2023-05-04T18:17:42.365Z,42.33
2023-05-04T18:22:43.746Z,42.51
2023-05-04T18:27:45.030Z,42.91
2023-05-04T18:32:40.934Z,43.33
2023-05-04T18:37:40.179Z,43.83
2023-05-04T18:42:39.727Z,44.95
2023-05-04T18:47:36.757Z,46.35
2023-05-04T18:52:39.030Z,46.67
2023-05-04T18:57:36.459Z,48.17
2023-05-04T19:02:35.472Z,49.90
2023-05-04T19:07:34.782Z,49.82
2023-05-04T19:12:33.907Z,49.32
2023-05-04T19:17:33.306Z,49.62
2023-05-04T19:22:33.444Z,51.57
2023-05-04T19:27:31.713Z,50.14
2023-05-04T19:32:32.005Z,47.17
2023-05-04T19:37:30.245Z,46.31
2023-05-04T19:42:30.707Z,46.75
2023-05-04T19:47:28.921Z,45.81
2023-05-04T19:52:28.089Z,47.25
2023-05-04T19:57:27.355Z,46.92
2023-05-04T20:02:26.866Z,44.89
2023-05-04T20:07:26.786Z,43.97
2023-05-04T20:12:25.073Z,43.65
2023-05-04T20:17:25.380Z,44.79
2023-05-04T20:22:23.691Z,45.51
2023-05-04T20:27:22.972Z,45.61
2023-05-04T20:32:23.244Z,46.95
2023-05-04T20:37:24.522Z,46.11
2023-05-04T20:42:21.809Z,45.18
2023-05-04T20:47:21.065Z,42.53
2023-05-04T20:52:19.330Z,41.69
2023-05-04T20:57:18.676Z,41.39
2023-05-04T21:02:17.934Z,42.23
2023-05-04T21:07:17.204Z,43.07
2023-05-04T21:12:17.500Z,43.47
2023-05-04T21:17:15.803Z,44.61
2023-05-04T21:22:15.090Z,43.99
2023-05-04T21:27:15.377Z,43.99
2023-05-04T21:32:15.620Z,41.50
2023-05-04T21:37:12.844Z,40.68
2023-05-04T21:42:13.117Z,40.26
2023-05-04T21:47:11.427Z,39.03
2023-05-04T21:52:10.695Z,37.79
2023-05-04T21:57:09.954Z,36.86
2023-05-04T22:02:09.215Z,37.17
2023-05-04T22:07:10.492Z,37.29
2023-05-04T22:12:09.768Z,37.70
2023-05-04T22:17:08.044Z,37.70
2023-05-04T22:22:07.299Z,37.51
2023-05-04T22:27:05.584Z,37.23
2023-05-04T22:32:03.834Z,36.81
2023-05-04T22:37:05.125Z,36.61
2023-05-04T22:42:03.380Z,36.61
2023-05-04T22:47:03.680Z,37.43
2023-05-04T22:52:00.966Z,37.32
2023-05-04T22:57:03.278Z,37.84
2023-05-04T23:02:00.584Z,38.06
2023-05-04T23:06:59.703Z,38.26
2023-05-04T23:11:58.007Z,38.47
2023-05-04T23:16:58.280Z,38.59
2023-05-04T23:21:58.553Z,38.79
2023-05-04T23:26:56.826Z,39.21
2023-05-04T23:31:56.081Z,39.01
2023-05-04T23:36:56.412Z,38.93
2023-05-04T23:41:54.685Z,39.83
2023-05-04T23:46:55.909Z,39.84
2023-05-04T23:51:53.157Z,39.94
2023-05-04T23:56:53.406Z,40.14
